Time;durP1;ratioP1;P1;durP2;ratioP2;P2;SDS_P1;SDS_P2;PMS_P1;PMS_P2;Temp;Humidity;BMP_temperature;BMP_pressure;BME280_temperature;BME280_humidity;BME280_pressure;Samples;Min_cycle;Max_cycle;Signal;HPM_P1;HPM_P2
2021/11/15 03:45:31;;;;;;;39.67;20.85;;;8.30;99.20;;;;;;5685086;24;20273;-79
2021/11/15 03:47:58;;;;;;;43.28;22.23;;;8.30;99.10;;;;;;4855633;29;20041;-79
2021/11/15 03:50:27;;;;;;;38.45;22.05;;;8.30;99.10;;;;;;4865022;29;20041;-80
2021/11/15 03:52:54;;;;;;;43.25;24.50;;;8.30;99.20;;;;;;4863796;29;20086;-80
2021/11/15 03:55:22;;;;;;;47.95;25.45;;;8.40;99.20;;;;;;4856341;29;20043;-80
2021/11/15 03:57:49;;;;;;;42.80;23.65;;;8.40;99.10;;;;;;4856127;29;20045;-81
2021/11/15 04:00:22;;;;;;;37.72;21.67;;;8.40;99.10;;;;;;4866120;29;20026;-80
2021/11/15 04:02:53;;;;;;;42.20;24.40;;;8.40;99.20;;;;;;4886666;29;20052;-79
2021/11/15 04:05:33;;;;;;;36.88;21.13;;;8.40;99.30;;;;;;4871499;29;20085;-79
2021/11/15 04:08:02;;;;;;;36.83;21.40;;;8.40;99.10;;;;;;4885766;29;20073;-79
2021/11/15 04:10:32;;;;;;;42.42;21.02;;;8.40;99.20;;;;;;4855917;29;20041;-79
2021/11/15 04:13:04;;;;;;;33.33;19.52;;;8.40;99.20;;;;;;4855798;29;20029;-80
2021/11/15 04:15:29;;;;;;;30.85;17.65;;;8.40;99.30;;;;;;4884064;29;20083;-79
2021/11/15 04:17:57;;;;;;;34.13;18.83;;;8.40;99.10;;;;;;4828503;29;20337;-79
2021/11/15 04:20:24;;;;;;;35.03;19.88;;;8.50;99.20;;;;;;4870352;29;20057;-81
2021/11/15 04:22:50;;;;;;;35.33;21.05;;;8.50;99.20;;;;;;4840538;29;20033;-80
2021/11/15 04:25:16;;;;;;;38.05;21.13;;;8.60;99.10;;;;;;4855827;29;20037;-79
2021/11/15 04:27:42;;;;;;;37.03;21.50;;;8.60;99.00;;;;;;4837714;29;20041;-79
2021/11/15 04:30:09;;;;;;;45.70;24.38;;;8.60;98.90;;;;;;4835801;29;20074;-79
2021/11/15 04:32:35;;;;;;;;;;;8.60;98.90;;;;;;4854161;29;20049;-79
2021/11/15 04:35:03;;;;;;;39.20;23.50;;;8.60;98.80;;;;;;4881854;29;19912;-79
2021/11/15 04:37:28;;;;;;;42.58;24.02;;;8.60;99.00;;;;;;4854313;29;20104;-79
2021/11/15 04:39:56;;;;;;;42.55;24.88;;;8.50;99.00;;;;;;4853819;29;20528;-79
2021/11/15 04:42:21;;;;;;;46.65;24.67;;;8.50;99.00;;;;;;4848946;29;20033;-79
2021/11/15 04:44:47;;;;;;;42.67;24.70;;;8.50;99.20;;;;;;4865477;29;20060;-79
2021/11/15 04:47:13;;;;;;;43.40;25.58;;;8.50;99.30;;;;;;4839085;29;20048;-79
2021/11/15 04:49:39;;;;;;;46.53;23.95;;;8.50;99.40;;;;;;4821921;29;20234;-80
2021/11/15 04:52:06;;;;;;;38.15;23.40;;;8.50;99.40;;;;;;4836927;29;20037;-79
2021/11/15 04:54:32;;;;;;;44.25;24.35;;;8.50;99.40;;;;;;4836928;29;20041;-79
2021/11/15 04:56:57;;;;;;;39.05;22.45;;;8.40;99.40;;;;;;4820496;29;20117;-79
2021/11/15 04:59:23;;;;;;;43.38;23.73;;;8.40;99.50;;;;;;4836876;29;20046;-79
2021/11/15 05:01:49;;;;;;;41.97;22.55;;;8.40;99.60;;;;;;4836677;29;20030;-80
2021/11/15 05:04:15;;;;;;;42.90;24.45;;;8.50;99.70;;;;;;4836712;29;20033;-79
2021/11/15 05:06:41;;;;;;;40.78;23.60;;;8.50;99.50;;;;;;4852076;29;20046;-81
2021/11/15 05:09:07;;;;;;;39.05;23.13;;;8.50;99.60;;;;;;4823134;29;20033;-79
2021/11/15 05:11:32;;;;;;;45.33;24.05;;;8.40;99.60;;;;;;4836640;29;20090;-79
2021/11/15 05:13:58;;;;;;;42.55;24.38;;;8.40;99.90;;;;;;4836965;29;20053;-81
2021/11/15 05:16:24;;;;;;;47.83;26.48;;;8.40;99.90;;;;;;4833130;29;20061;-81
2021/11/15 05:18:50;;;;;;;49.30;27.55;;;8.40;99.90;;;;;;4798829;29;20349;-81
2021/11/15 05:21:17;;;;;;;51.80;27.98;;;8.40;99.90;;;;;;4846706;29;20065;-81
2021/11/15 05:23:42;;;;;;;;;;;8.40;99.90;;;;;;4842944;29;20038;-81
2021/11/15 05:26:08;;;;;;;49.53;28.20;;;8.30;99.90;;;;;;4857533;29;19912;-81
2021/11/15 05:28:34;;;;;;;53.13;28.35;;;8.20;99.90;;;;;;4833694;29;20042;-81
2021/11/15 05:31:00;;;;;;;49.20;25.45;;;8.20;99.90;;;;;;4851057;29;20098;-81
2021/11/15 05:33:26;;;;;;;54.03;26.85;;;8.20;99.90;;;;;;4860844;29;20046;-80
2021/11/15 05:35:52;;;;;;;45.70;25.95;;;8.30;99.90;;;;;;4818737;29;20029;-80
2021/11/15 05:38:18;;;;;;;47.50;26.45;;;8.20;99.90;;;;;;4819647;29;20030;-80
2021/11/15 05:40:44;;;;;;;50.10;26.25;;;8.20;99.90;;;;;;4816822;29;20029;-81
2021/11/15 05:43:09;;;;;;;44.47;25.48;;;8.20;99.90;;;;;;4834993;29;20086;-80
2021/11/15 05:45:36;;;;;;;41.95;23.25;;;8.20;99.90;;;;;;4816552;29;20054;-79
2021/11/15 05:48:02;;;;;;;40.35;21.27;;;8.20;99.90;;;;;;4830588;29;20037;-80
2021/11/15 05:50:29;;;;;;;42.90;22.45;;;8.10;99.90;;;;;;4830766;29;20048;-79
2021/11/15 05:52:55;;;;;;;46.83;24.67;;;8.20;99.90;;;;;;4833110;29;20037;-79
2021/11/15 05:55:23;;;;;;;52.13;24.40;;;8.20;99.90;;;;;;4830502;29;20065;-79
2021/11/15 05:57:50;;;;;;;48.97;25.92;;;8.20;99.90;;;;;;4845104;29;20071;-80
2021/11/15 06:00:21;;;;;;;43.25;24.88;;;8.20;99.90;;;;;;4832395;29;20042;-79
2021/11/15 06:02:47;;;;;;;62.13;31.00;;;8.20;99.90;;;;;;4848079;29;20026;-80
2021/11/15 06:05:13;;;;;;;53.22;28.88;;;8.30;99.90;;;;;;4849409;29;20320;-80
2021/11/15 06:07:41;;;;;;;52.00;30.38;;;8.20;99.90;;;;;;4834053;29;20029;-80
2021/11/15 06:10:07;;;;;;;57.58;30.38;;;8.20;99.90;;;;;;4841245;29;20064;-80
2021/11/15 06:12:34;;;;;;;59.13;31.87;;;8.20;99.90;;;;;;4835426;29;20025;-80
2021/11/15 06:15:00;;;;;;;;;;;8.20;99.90;;;;;;4833573;29;20392;-80
2021/11/15 06:17:26;;;;;;;70.18;35.17;;;8.20;99.90;;;;;;4866867;29;19938;-79
2021/11/15 06:19:52;;;;;;;64.38;33.95;;;8.10;99.90;;;;;;4868032;29;20045;-80
2021/11/15 06:22:18;;;;;;;62.55;34.25;;;8.10;99.90;;;;;;4845096;29;20069;-79
2021/11/15 06:24:47;;;;;;;72.45;36.30;;;8.00;99.90;;;;;;4848898;29;20225;-80
2021/11/15 06:27:17;;;;;;;74.20;38.53;;;8.10;99.90;;;;;;4830311;29;20088;-81
2021/11/15 06:29:44;;;;;;;76.10;37.35;;;8.10;99.90;;;;;;4856422;29;20042;-79
2021/11/15 06:32:10;;;;;;;80.03;37.83;;;8.20;99.90;;;;;;4841188;29;20038;-81
2021/11/15 06:34:37;;;;;;;72.28;36.10;;;8.20;99.90;;;;;;4816705;29;20344;-81
2021/11/15 06:37:04;;;;;;;70.93;35.20;;;8.20;99.90;;;;;;4820147;29;20022;-80
2021/11/15 06:39:30;;;;;;;66.90;33.40;;;8.20;99.90;;;;;;4843225;29;20372;-81
2021/11/15 06:41:57;;;;;;;68.65;34.78;;;8.10;99.90;;;;;;4835630;29;20033;-81
2021/11/15 06:44:24;;;;;;;67.85;33.20;;;8.10;99.90;;;;;;4835688;29;20042;-79
2021/11/15 06:46:50;;;;;;;68.35;33.38;;;8.10;99.90;;;;;;4831852;29;20125;-81
2021/11/15 06:49:17;;;;;;;62.35;32.97;;;8.20;99.90;;;;;;4834266;29;20042;-81
2021/11/15 06:51:44;;;;;;;67.40;34.95;;;8.30;99.90;;;;;;4834190;29;20058;-79
2021/11/15 06:54:10;;;;;;;67.85;34.30;;;8.40;99.90;;;;;;4833966;29;20050;-81
2021/11/15 06:56:36;;;;;;;65.05;34.67;;;8.30;99.90;;;;;;4816832;29;20225;-81
2021/11/15 06:59:02;;;;;;;74.43;36.20;;;8.30;99.90;;;;;;4831170;29;20105;-81
2021/11/15 07:01:28;;;;;;;75.72;38.22;;;8.30;99.90;;;;;;4832590;29;20429;-79
2021/11/15 07:03:54;;;;;;;77.32;38.70;;;8.20;99.90;;;;;;4832816;29;20034;-80
2021/11/15 07:06:20;;;;;;;83.10;37.65;;;8.20;99.90;;;;;;4849231;29;20041;-79
2021/11/15 07:08:47;;;;;;;72.50;35.53;;;8.20;99.90;;;;;;4832156;29;20092;-79
2021/11/15 07:11:13;;;;;;;;;;;8.20;99.90;;;;;;4832927;29;20030;-81
2021/11/15 07:13:39;;;;;;;80.35;39.35;;;8.20;99.90;;;;;;4832071;29;19956;-80
2021/11/15 07:16:05;;;;;;;73.18;38.03;;;8.20;99.90;;;;;;4801510;29;20101;-80
2021/11/15 07:18:32;;;;;;;77.13;37.58;;;8.20;99.90;;;;;;4812543;29;20038;-81
2021/11/15 07:20:59;;;;;;;79.18;40.13;;;8.10;99.90;;;;;;4833992;29;20290;-79
2021/11/15 07:23:25;;;;;;;79.60;41.78;;;8.20;99.90;;;;;;4834047;29;20075;-79
2021/11/15 07:25:53;;;;;;;83.00;41.28;;;8.20;99.90;;;;;;4818674;29;20144;-81
2021/11/15 07:28:20;;;;;;;88.85;41.33;;;8.20;99.90;;;;;;4820288;29;20117;-81
2021/11/15 07:30:46;;;;;;;82.00;40.20;;;8.10;99.90;;;;;;4847534;29;20258;-81
2021/11/15 07:33:13;;;;;;;80.70;40.15;;;8.10;99.90;;;;;;4833592;29;20086;-79
2021/11/15 07:35:39;;;;;;;77.57;39.47;;;8.10;99.90;;;;;;4818475;29;20078;-79
2021/11/15 07:38:04;;;;;;;80.00;39.00;;;8.20;99.90;;;;;;4832622;29;20030;-80
2021/11/15 07:40:30;;;;;;;74.07;38.70;;;8.10;99.90;;;;;;4832404;29;20036;-80
2021/11/15 07:42:56;;;;;;;76.90;37.50;;;8.10;99.90;;;;;;4824256;29;20036;-81
2021/11/15 07:45:23;;;;;;;72.63;36.22;;;8.10;99.90;;;;;;4849875;29;20214;-81
2021/11/15 07:47:49;;;;;;;75.35;34.95;;;8.20;99.90;;;;;;4852160;29;20048;-80
2021/11/15 07:50:15;;;;;;;75.72;36.63;;;8.30;99.90;;;;;;4821453;29;20412;-80
2021/11/15 07:52:41;;;;;;;76.53;38.90;;;8.40;99.90;;;;;;4851526;29;20073;-79
2021/11/15 07:55:10;;;;;;;90.43;41.42;;;8.40;99.90;;;;;;4836436;29;20253;-81
2021/11/15 07:57:38;;;;;;;92.85;45.60;;;8.40;99.70;;;;;;4853048;29;20307;-80
2021/11/15 08:00:06;;;;;;;96.78;47.35;;;8.30;99.90;;;;;;4821588;29;20368;-81
2021/11/15 08:02:39;;;;;;;93.55;42.95;;;8.30;99.90;;;;;;4837486;29;20156;-81
2021/11/15 08:05:05;;;;;;;93.20;45.13;;;8.30;99.90;;;;;;4852212;29;20034;-81
2021/11/15 08:07:31;;;;;;;97.83;47.87;;;8.40;99.90;;;;;;4851963;29;20089;-81
2021/11/15 08:09:57;;;;;;;105.25;49.53;;;8.50;99.90;;;;;;4836508;29;20062;-81
2021/11/15 08:12:35;;;;;;;107.45;49.42;;;8.60;99.80;;;;;;4836370;29;20337;-81
2021/11/15 08:15:06;;;;;;;96.82;45.70;;;8.70;99.90;;;;;;4864306;29;20071;-79
2021/11/15 08:17:32;;;;;;;102.13;44.92;;;8.70;99.70;;;;;;4820954;29;20026;-80
2021/11/15 08:19:58;;;;;;;86.50;41.58;;;8.70;99.60;;;;;;4818059;29;20103;-81
2021/11/15 08:22:23;;;;;;;92.22;42.60;;;8.70;99.60;;;;;;4819631;29;20082;-80
2021/11/15 08:25:08;;;;;;;86.80;41.45;;;8.70;99.40;;;;;;4820727;29;20026;-80
2021/11/15 08:27:34;;;;;;;88.35;41.58;;;8.70;99.20;;;;;;4851220;29;20077;-80
2021/11/15 08:29:59;;;;;;;85.82;44.20;;;8.70;99.40;;;;;;4822573;29;20211;-80
2021/11/15 08:32:25;;;;;;;94.90;45.70;;;8.70;99.60;;;;;;4817439;29;20046;-80
2021/11/15 08:34:59;;;;;;;90.30;43.92;;;8.70;99.60;;;;;;4865297;29;20036;-80
2021/11/15 08:37:25;;;;;;;95.28;44.80;;;8.80;99.60;;;;;;4819869;29;20049;-80
2021/11/15 08:39:51;;;;;;;88.60;42.87;;;8.80;99.10;;;;;;4851151;29;20037;-81
2021/11/15 08:42:17;;;;;;;90.57;43.78;;;8.80;99.30;;;;;;4866649;29;20034;-80
2021/11/15 08:44:51;;;;;;;93.13;45.08;;;9.00;99.30;;;;;;4820743;29;20038;-78
2021/11/15 08:47:17;;;;;;;94.55;46.50;;;9.10;99.20;;;;;;4850845;29;20070;-80
2021/11/15 08:49:43;;;;;;;93.47;43.75;;;9.20;99.00;;;;;;4836086;29;20081;-80
2021/11/15 08:52:09;;;;;;;84.32;42.75;;;9.30;98.70;;;;;;4820708;29;20049;-82
2021/11/15 08:54:35;;;;;;;80.28;40.35;;;9.40;98.30;;;;;;4835525;29;20060;-80
2021/11/15 08:57:04;;;;;;;87.33;43.70;;;9.30;98.20;;;;;;4835954;29;20030;-79
2021/11/15 08:59:30;;;;;;;91.85;43.30;;;9.30;98.10;;;;;;4833842;29;20505;-81
2021/11/15 09:01:57;;;;;;;90.28;44.28;;;9.20;98.10;;;;;;4836822;29;20113;-81
2021/11/15 09:04:23;;;;;;;80.00;41.90;;;9.20;98.50;;;;;;4836135;29;20348;-81
2021/11/15 09:06:49;;;;;;;90.20;45.20;;;9.20;98.50;;;;;;4835653;29;20050;-81
2021/11/15 09:09:17;;;;;;;81.05;41.20;;;9.20;98.50;;;;;;4851066;29;20097;-81
2021/11/15 09:11:49;;;;;;;82.30;41.63;;;9.20;98.10;;;;;;4821524;29;20414;-81
2021/11/15 09:14:17;;;;;;;84.10;42.90;;;9.20;98.30;;;;;;4835445;29;20049;-81
2021/11/15 09:16:44;;;;;;;79.82;40.88;;;9.20;98.20;;;;;;4820099;29;20029;-81
2021/11/15 09:19:11;;;;;;;85.22;41.28;;;9.10;98.20;;;;;;4851120;29;20521;-81
2021/11/15 09:21:37;;;;;;;;;;;9.10;98.50;;;;;;4850646;29;20114;-81
2021/11/15 09:24:03;;;;;;;81.38;39.75;;;9.20;98.50;;;;;;4835393;29;20120;-80
2021/11/15 09:26:29;;;;;;;85.63;44.33;;;9.30;98.30;;;;;;4820094;29;20049;-80
2021/11/15 09:28:56;;;;;;;84.07;42.05;;;9.20;97.90;;;;;;4835844;29;20038;-79
2021/11/15 09:31:23;;;;;;;86.57;44.50;;;9.20;98.00;;;;;;4834821;29;20237;-79
2021/11/15 09:33:50;;;;;;;94.50;43.47;;;9.00;98.00;;;;;;4834990;29;20041;-81
2021/11/15 09:36:16;;;;;;;;;;;9.10;98.40;;;;;;4850419;29;20303;-81
2021/11/15 09:38:44;;;;;;;84.73;41.50;;;9.20;97.90;;;;;;4820234;29;19935;-81
2021/11/15 09:41:11;;;;;;;80.72;41.03;;;9.20;98.30;;;;;;4849662;29;20049;-81
2021/11/15 09:43:38;;;;;;;83.70;41.30;;;9.30;98.40;;;;;;4835605;29;20042;-81
2021/11/15 09:46:13;;;;;;;87.65;43.35;;;9.50;98.00;;;;;;4833750;29;20058;-80
2021/11/15 09:48:45;;;;;;;89.47;44.17;;;9.60;97.80;;;;;;4849828;29;20071;-81
2021/11/15 09:51:11;;;;;;;92.40;43.30;;;9.50;97.00;;;;;;4830764;29;20105;-80
2021/11/15 09:53:38;;;;;;;99.03;43.70;;;9.50;97.40;;;;;;4835162;29;20230;-79
2021/11/15 09:56:11;;;;;;;93.97;44.25;;;9.60;97.40;;;;;;4860684;29;20034;-80
2021/11/15 09:58:38;;;;;;;92.28;45.63;;;9.70;97.40;;;;;;4848091;29;20147;-81
2021/11/15 10:01:05;;;;;;;98.72;48.55;;;9.70;97.00;;;;;;4819730;29;20052;-80
2021/11/15 10:03:31;;;;;;;97.60;44.70;;;9.70;96.70;;;;;;4834248;29;20044;-81
2021/11/15 10:05:57;;;;;;;89.15;45.53;;;9.60;96.70;;;;;;4843605;29;20241;-80
2021/11/15 10:08:23;;;;;;;90.60;45.15;;;9.60;96.90;;;;;;4832580;29;20034;-81
2021/11/15 10:10:56;;;;;;;91.72;46.10;;;9.60;96.90;;;;;;4850114;29;20052;-80
2021/11/15 10:13:40;;;;;;;94.18;47.05;;;9.60;97.10;;;;;;4849867;29;20329;-81
2021/11/15 10:16:16;;;;;;;103.13;47.70;;;9.60;96.80;;;;;;4846834;29;20041;-80
2021/11/15 10:18:57;;;;;;;93.07;45.58;;;9.60;96.80;;;;;;4846933;29;20037;-80
2021/11/15 10:21:25;;;;;;;97.70;48.38;;;9.60;97.00;;;;;;4863878;29;20030;-80
2021/11/15 10:24:13;;;;;;;99.50;48.85;;;9.70;96.80;;;;;;4860178;29;20369;-80
2021/11/15 10:26:51;;;;;;;94.63;48.17;;;9.70;96.80;;;;;;4862443;29;20102;-81
2021/11/15 10:29:35;;;;;;;92.80;48.38;;;9.80;96.90;;;;;;4834576;29;20034;-80
2021/11/15 10:32:07;;;;;;;97.13;49.58;;;9.80;96.70;;;;;;4864278;29;20213;-80
2021/11/15 10:34:34;;;;;;;101.22;49.33;;;9.80;96.70;;;;;;4834309;29;20057;-81
2021/11/15 10:37:00;;;;;;;105.75;51.08;;;9.70;96.40;;;;;;4847884;29;20037;-81
2021/11/15 10:39:32;;;;;;;103.93;49.15;;;9.60;96.30;;;;;;4833805;29;20030;-81
2021/11/15 10:42:02;;;;;;;89.53;45.30;;;9.60;96.90;;;;;;4834137;29;20277;-81
2021/11/15 10:44:31;;;;;;;97.45;47.65;;;9.60;97.00;;;;;;4849432;29;20033;-81
2021/11/15 10:46:59;;;;;;;98.60;47.83;;;9.70;96.40;;;;;;4848084;29;20265;-81
2021/11/15 10:49:26;;;;;;;102.05;48.22;;;9.70;96.60;;;;;;4833958;29;20083;-80
2021/11/15 10:51:54;;;;;;;;;;;9.80;96.80;;;;;;4829887;29;20326;-81
2021/11/15 10:54:55;;;;;;;94.90;47.10;;;9.80;96.00;;;;;;4833111;29;20204;-80
2021/11/15 10:57:34;;;;;;;85.72;45.40;;;9.70;96.50;;;;;;4861889;29;20105;-80
2021/11/15 11:00:06;;;;;;;91.75;46.55;;;9.90;96.60;;;;;;4853503;29;20038;-80
2021/11/15 11:02:41;;;;;;;87.60;46.25;;;9.90;96.10;;;;;;4847759;29;20034;-81
2021/11/15 11:05:19;;;;;;;91.85;46.08;;;9.80;96.10;;;;;;4849053;29;20183;-81
2021/11/15 11:07:48;;;;;;;90.22;46.67;;;9.90;96.30;;;;;;4851598;29;20105;-80
2021/11/15 11:10:17;;;;;;;96.18;49.70;;;10.00;96.30;;;;;;4831745;29;20042;-80
2021/11/15 11:12:58;;;;;;;98.38;49.50;;;10.00;95.50;;;;;;4861069;29;20034;-80
2021/11/15 11:15:40;;;;;;;82.50;45.72;;;10.00;95.80;;;;;;4846194;29;20030;-80
2021/11/15 11:18:13;;;;;;;86.25;44.95;;;9.80;96.10;;;;;;4850629;29;20052;-80
2021/11/15 11:26:19;;;;;;;89.47;46.58;;;9.80;96.40;;;;;;4869698;29;20038;-81
2021/11/15 11:28:53;;;;;;;79.80;44.47;;;9.70;95.80;;;;;;4850568;29;20038;-79
2021/11/15 11:31:21;;;;;;;79.97;43.97;;;9.70;96.90;;;;;;4849589;29;20036;-80
2021/11/15 11:33:48;;;;;;;88.88;42.55;;;9.80;96.90;;;;;;4833392;29;20038;-80
2021/11/15 11:36:14;;;;;;;80.28;43.00;;;10.00;96.60;;;;;;4851903;29;20030;-81
2021/11/15 11:38:41;;;;;;;79.28;42.63;;;10.00;96.20;;;;;;4867493;29;20291;-81
2021/11/15 11:41:08;;;;;;;80.53;41.90;;;10.00;96.40;;;;;;4833694;29;20233;-80
2021/11/15 11:43:34;;;;;;;78.55;44.60;;;9.90;96.50;;;;;;4853220;29;20030;-82
2021/11/15 11:46:02;;;;;;;87.22;45.38;;;9.90;96.50;;;;;;4821988;29;20098;-80
2021/11/15 11:48:29;;;;;;;98.75;46.20;;;9.80;96.50;;;;;;4850415;29;20036;-81
2021/11/15 11:50:57;;;;;;;87.63;46.83;;;9.70;96.80;;;;;;4837024;29;20074;-81
2021/11/15 11:53:29;;;;;;;95.65;48.17;;;9.60;97.10;;;;;;4849329;29;20121;-80
2021/11/15 11:55:56;;;;;;;94.47;48.60;;;9.70;97.30;;;;;;4833569;29;20034;-80
2021/11/15 11:58:32;;;;;;;90.43;44.97;;;9.60;97.10;;;;;;4836932;29;20325;-81
2021/11/15 12:01:14;;;;;;;89.53;44.45;;;9.50;97.60;;;;;;4832497;29;20321;-81
2021/11/15 12:03:40;;;;;;;79.63;43.75;;;9.60;97.90;;;;;;4851516;29;20282;-81
2021/11/15 12:06:28;;;;;;;77.35;43.42;;;9.60;97.70;;;;;;4852216;29;20242;-81
2021/11/15 12:08:56;;;;;;;80.05;41.67;;;9.60;97.20;;;;;;4821487;29;20045;-80
2021/11/15 12:11:33;;;;;;;70.47;40.13;;;9.50;97.70;;;;;;4836989;29;20086;-81
2021/11/15 12:14:00;;;;;;;75.70;39.53;;;9.50;97.90;;;;;;4839707;29;20037;-82
2021/11/15 12:16:56;;;;;;;66.40;39.03;;;9.60;97.60;;;;;;4852127;29;20324;-82
2021/11/15 12:19:30;;;;;;;74.13;39.93;;;9.60;97.50;;;;;;4851750;29;20037;-80
2021/11/15 12:22:08;;;;;;;71.05;39.00;;;9.60;97.70;;;;;;4850968;29;20089;-82
2021/11/15 12:24:34;;;;;;;69.55;39.80;;;9.70;97.80;;;;;;4850826;29;20083;-81
2021/11/15 12:27:00;;;;;;;73.50;41.22;;;9.80;97.70;;;;;;4866851;29;20037;-81
2021/11/15 12:29:31;;;;;;;74.70;42.28;;;9.80;97.20;;;;;;4817828;29;20108;-81
2021/11/15 12:32:01;;;;;;;84.15;42.08;;;9.80;97.40;;;;;;4849715;29;20048;-81
2021/11/15 12:34:33;;;;;;;74.90;43.05;;;9.80;97.30;;;;;;4836355;29;20052;-81
2021/11/15 12:37:01;;;;;;;80.50;42.55;;;9.70;97.60;;;;;;4853950;29;20070;-81
2021/11/15 12:39:30;;;;;;;87.18;46.05;;;9.60;97.60;;;;;;4821076;29;20069;-81
2021/11/15 12:41:59;;;;;;;84.30;44.75;;;9.50;97.90;;;;;;4850641;29;20045;-81
2021/11/15 12:44:35;;;;;;;83.07;45.78;;;9.50;98.30;;;;;;4850602;29;20030;-81
2021/11/15 12:47:19;;;;;;;81.78;45.05;;;9.50;98.20;;;;;;4850181;29;20238;-81
2021/11/15 12:49:54;;;;;;;89.55;45.50;;;9.50;98.30;;;;;;4851403;29;20343;-81
2021/11/15 12:52:38;;;;;;;81.35;43.78;;;9.50;98.60;;;;;;4850394;29;20253;-81
2021/11/15 12:55:17;;;;;;;78.25;44.03;;;9.60;98.50;;;;;;4865010;29;20053;-81
2021/11/15 12:57:55;;;;;;;85.75;46.25;;;9.70;98.30;;;;;;4851278;29;20057;-82
2021/11/15 13:00:23;;;;;;;78.60;45.33;;;9.60;97.90;;;;;;4851463;29;20084;-80
2021/11/15 13:02:54;;;;;;;78.55;44.13;;;9.50;98.20;;;;;;4865814;29;20034;-82
2021/11/15 13:05:21;;;;;;;84.28;46.13;;;9.50;98.50;;;;;;4850919;29;20038;-80
2021/11/15 13:07:48;;;;;;;;;;;9.50;98.60;;;;;;4835763;29;20070;-81
2021/11/15 13:10:16;;;;;;;86.35;46.85;;;9.60;98.40;;;;;;4839156;29;19920;-80
2021/11/15 13:12:42;;;;;;;88.05;46.38;;;9.60;98.60;;;;;;4836142;29;20050;-80
2021/11/15 13:15:08;;;;;;;86.10;47.70;;;9.70;98.10;;;;;;4833486;29;20066;-81
2021/11/15 13:17:35;;;;;;;87.82;47.65;;;9.70;98.20;;;;;;4850491;29;20266;-81
2021/11/15 13:20:06;;;;;;;78.80;46.25;;;9.70;98.30;;;;;;4833425;29;20030;-81
2021/11/15 13:22:32;;;;;;;85.40;46.47;;;9.80;98.40;;;;;;4846829;29;20377;-81
2021/11/15 13:25:19;;;;;;;76.07;45.63;;;9.90;98.40;;;;;;4829818;29;20037;-82
2021/11/15 13:27:47;;;;;;;83.60;44.50;;;10.00;98.00;;;;;;4800640;29;20098;-80
2021/11/15 13:30:15;;;;;;;;;;;9.80;97.80;;;;;;4829599;29;20054;-81
2021/11/15 13:32:55;;;;;;;81.22;46.05;;;9.80;98.30;;;;;;4817669;29;19915;-81
2021/11/15 13:35:21;;;;;;;80.10;46.50;;;9.80;98.10;;;;;;4832557;29;20174;-80
2021/11/15 13:37:52;;;;;;;96.97;47.60;;;9.80;98.00;;;;;;4816615;29;20386;-81
2021/11/15 13:40:19;;;;;;;89.72;47.90;;;9.80;98.30;;;;;;4833818;29;20306;-82
2021/11/15 13:42:45;;;;;;;81.03;45.90;;;9.80;98.30;;;;;;4834580;29;20045;-80
2021/11/15 13:45:11;;;;;;;78.85;44.30;;;9.80;98.40;;;;;;4833715;29;20086;-81
2021/11/15 13:47:37;;;;;;;83.82;46.80;;;9.90;98.50;;;;;;4821015;29;20481;-81
2021/11/15 13:50:04;;;;;;;81.82;46.28;;;9.90;98.20;;;;;;4834610;29;20077;-81
2021/11/15 13:52:30;;;;;;;83.35;46.92;;;9.80;98.30;;;;;;4833996;29;20053;-81
2021/11/15 13:54:57;;;;;;;90.47;46.78;;;9.80;98.70;;;;;;4834457;29;20036;-81
2021/11/15 13:57:26;;;;;;;79.25;44.88;;;9.90;98.70;;;;;;4834909;29;20038;-81
2021/11/15 13:59:53;;;;;;;80.65;45.13;;;9.90;98.70;;;;;;4835265;29;20033;-81
2021/11/15 14:02:19;;;;;;;91.60;47.47;;;9.90;98.40;;;;;;4832355;29;20038;-81
2021/11/15 14:04:45;;;;;;;92.75;47.03;;;9.80;98.60;;;;;;4848370;29;20034;-81
2021/11/15 14:07:10;;;;;;;92.85;47.28;;;9.60;99.30;;;;;;4833842;29;20090;-81
2021/11/15 14:09:36;;;;;;;87.97;46.35;;;9.50;99.40;;;;;;4819689;29;20046;-81
2021/11/15 14:12:03;;;;;;;85.70;45.75;;;9.50;99.80;;;;;;4834729;29;20233;-81
2021/11/15 14:14:29;;;;;;;85.47;45.03;;;9.60;99.90;;;;;;4848983;29;20033;-82
2021/11/15 14:16:55;;;;;;;79.03;45.13;;;9.60;99.60;;;;;;4833830;29;20049;-82
2021/11/15 14:19:22;;;;;;;90.15;46.75;;;9.60;99.80;;;;;;4804295;29;20106;-81
2021/11/15 14:21:47;;;;;;;;;;;9.60;99.70;;;;;;4834828;29;20034;-81
2021/11/15 14:24:13;;;;;;;90.80;45.27;;;9.60;99.80;;;;;;4849903;29;19915;-81
2021/11/15 14:26:39;;;;;;;91.50;45.63;;;9.60;99.90;;;;;;4847127;29;20263;-81
2021/11/15 14:29:05;;;;;;;84.70;45.00;;;9.50;99.90;;;;;;4819848;29;20292;-81
2021/11/15 14:31:31;;;;;;;82.18;45.00;;;9.50;99.90;;;;;;4836178;29;20077;-81
2021/11/15 14:33:57;;;;;;;93.45;47.95;;;9.50;99.90;;;;;;4814888;29;20042;-81
2021/11/15 14:36:23;;;;;;;89.72;45.25;;;9.40;99.90;;;;;;4832177;29;20034;-81
2021/11/15 14:38:49;;;;;;;85.25;45.20;;;9.30;99.90;;;;;;4846513;29;20051;-82
2021/11/15 14:41:15;;;;;;;91.10;48.08;;;9.30;99.90;;;;;;4818704;29;20058;-80
2021/11/15 14:43:40;;;;;;;87.78;45.85;;;9.30;99.90;;;;;;4818553;29;20034;-80
2021/11/15 14:46:06;;;;;;;98.22;49.40;;;9.30;99.90;;;;;;4817765;29;20112;-80
2021/11/15 14:48:32;;;;;;;83.35;43.85;;;9.20;99.90;;;;;;4835274;29;20030;-81
2021/11/15 14:50:58;;;;;;;87.60;44.50;;;9.20;99.90;;;;;;4833086;29;20033;-81
2021/11/15 14:53:24;;;;;;;88.72;45.80;;;9.20;99.90;;;;;;4820550;29;20241;-80
2021/11/15 14:55:50;;;;;;;95.38;47.17;;;9.10;99.90;;;;;;4835059;29;20257;-82
2021/11/15 14:58:16;;;;;;;79.97;44.05;;;9.20;99.90;;;;;;4850432;29;20069;-81
2021/11/15 15:00:42;;;;;;;83.35;44.78;;;9.20;99.90;;;;;;4819692;29;20044;-81
2021/11/15 15:03:09;;;;;;;93.13;47.72;;;9.20;99.90;;;;;;4836476;29;20025;-81
2021/11/15 15:05:35;;;;;;;80.35;43.60;;;9.30;99.90;;;;;;4835680;29;20049;-82
2021/11/15 15:08:01;;;;;;;91.65;46.95;;;9.30;99.90;;;;;;4833600;29;20069;-81
2021/11/15 15:10:28;;;;;;;87.75;45.60;;;9.30;99.90;;;;;;4820831;29;20053;-82
2021/11/15 15:12:56;;;;;;;85.65;46.95;;;9.30;99.90;;;;;;4836479;29;20061;-79
2021/11/15 15:15:24;;;;;;;84.15;45.40;;;9.30;99.90;;;;;;4835704;29;20045;-82
2021/11/15 15:17:56;;;;;;;98.38;48.13;;;9.30;99.90;;;;;;4820528;29;20341;-81
2021/11/15 15:20:24;;;;;;;92.53;47.03;;;9.20;99.90;;;;;;4828192;29;20053;-81
2021/11/15 15:22:54;;;;;;;97.88;46.50;;;9.20;99.90;;;;;;4835992;29;20041;-80
2021/11/15 15:25:21;;;;;;;91.97;47.15;;;9.10;99.90;;;;;;4837827;29;20041;-80
2021/11/15 15:27:47;;;;;;;97.72;47.45;;;9.10;99.90;;;;;;4836361;29;20038;-79
2021/11/15 15:30:17;;;;;;;91.30;47.08;;;9.00;99.90;;;;;;4838281;29;20032;-80
2021/11/15 15:32:48;;;;;;;99.47;48.80;;;8.90;99.90;;;;;;4851285;29;20038;-82
2021/11/15 15:35:16;;;;;;;94.15;47.20;;;8.90;99.90;;;;;;4837091;29;20063;-82
2021/11/15 15:37:42;;;;;;;94.65;45.53;;;8.90;99.90;;;;;;4820544;29;20038;-82
2021/11/15 15:40:11;;;;;;;97.40;47.70;;;8.90;99.90;;;;;;4824717;29;20044;-82
2021/11/15 15:42:38;;;;;;;96.50;48.15;;;9.00;99.90;;;;;;4821324;29;20304;-81
2021/11/15 15:45:05;;;;;;;98.28;47.70;;;9.00;99.90;;;;;;4841081;29;20126;-81
2021/11/15 15:47:32;;;;;;;110.10;50.42;;;9.00;99.90;;;;;;4846784;29;20062;-81
2021/11/15 15:49:59;;;;;;;96.63;48.85;;;9.00;99.90;;;;;;4851564;29;20038;-81
2021/11/15 15:52:25;;;;;;;95.38;48.20;;;9.00;99.90;;;;;;4840532;29;20332;-81
2021/11/15 15:54:52;;;;;;;104.30;49.53;;;9.00;99.90;;;;;;4836364;29;20054;-81
2021/11/15 15:57:19;;;;;;;115.30;51.83;;;9.10;99.90;;;;;;4836082;29;20034;-81
2021/11/15 15:59:45;;;;;;;109.10;50.72;;;9.10;99.90;;;;;;4851586;29;20022;-82
2021/11/15 16:02:11;;;;;;;116.20;53.17;;;9.20;99.90;;;;;;4821150;29;20038;-81
2021/11/15 16:18:00;;;;;;;136.52;58.22;;;9.30;99.90;;;;;;4851044;29;20038;-81
2021/11/15 16:20:26;;;;;;;120.40;55.13;;;9.40;99.90;;;;;;4839750;29;20399;-81
2021/11/15 16:22:53;;;;;;;113.30;53.47;;;9.30;99.90;;;;;;4835455;29;20061;-81
2021/11/15 16:25:19;;;;;;;;;;;9.30;99.90;;;;;;4834652;29;20356;-81
2021/11/15 16:27:45;;;;;;;147.93;58.63;;;9.40;99.90;;;;;;4820642;29;19912;-81
2021/11/15 16:30:13;;;;;;;128.15;56.58;;;9.30;99.90;;;;;;4835450;29;20094;-81
2021/11/15 16:32:40;;;;;;;135.90;58.08;;;9.30;99.90;;;;;;4850488;29;20046;-81
2021/11/15 16:35:06;;;;;;;;;;;9.40;99.90;;;;;;4852393;29;20757;-81
2021/11/15 16:37:32;;;;;;;136.50;58.77;;;9.30;99.90;;;;;;4850837;29;19919;-81
2021/11/15 16:39:58;;;;;;;158.20;65.22;;;9.30;99.90;;;;;;4820097;29;20030;-82
2021/11/15 16:42:24;;;;;;;145.63;58.67;;;9.30;99.90;;;;;;4832506;29;20038;-81
2021/11/15 16:44:50;;;;;;;149.75;60.75;;;9.30;99.90;;;;;;4821960;29;20373;-81
2021/11/15 16:47:17;;;;;;;161.05;62.45;;;9.20;99.90;;;;;;4850645;29;20253;-81
2021/11/15 16:49:43;;;;;;;163.65;64.47;;;9.10;99.90;;;;;;4834583;29;20038;-81